createdAt,value
2023-04-02T00:01:40.055Z,10.20
2023-04-02T00:04:23.867Z,11.00
2023-04-02T00:06:55.017Z,10.35
2023-04-02T00:09:27.812Z,11.27
2023-04-02T00:11:58.233Z,11.20
2023-04-02T00:14:35.811Z,10.02
2023-04-02T00:17:06.404Z,10.60
2023-04-02T00:19:45.681Z,11.27
2023-04-02T00:22:21.555Z,11.75
2023-04-02T00:24:56.897Z,10.90
2023-04-02T00:27:27.169Z,11.18
2023-04-02T00:29:59.973Z,11.05
2023-04-02T00:32:31.851Z,11.02
2023-04-02T00:35:03.494Z,11.23
2023-04-02T00:37:39.094Z,11.18
2023-04-02T00:40:20.684Z,11.13
2023-04-02T00:42:51.964Z,11.65
2023-04-02T00:45:19.731Z,10.93
2023-04-02T00:47:51.294Z,11.50
2023-04-02T00:50:26.458Z,11.90
2023-04-02T00:52:57.272Z,11.60
2023-04-02T00:55:39.314Z,10.80
2023-04-02T00:58:37.175Z,10.75
2023-04-02T01:01:16.970Z,11.07
2023-04-02T01:03:58.711Z,11.65
2023-04-02T01:06:34.515Z,11.00
2023-04-02T01:09:17.571Z,11.88
2023-04-02T01:11:58.685Z,11.30
2023-04-02T01:14:45.417Z,11.15
2023-04-02T01:17:48.872Z,10.65
2023-04-02T01:20:34.772Z,10.80
2023-04-02T01:23:08.500Z,11.20
2023-04-02T01:26:02.148Z,11.52
2023-04-02T01:28:55.937Z,11.38
2023-04-02T01:31:28.225Z,11.18
2023-04-02T01:33:57.226Z,10.88
2023-04-02T01:36:49.902Z,11.45
2023-04-02T01:39:33.267Z,10.50
2023-04-02T01:42:14.522Z,11.27
2023-04-02T01:44:47.401Z,10.80
2023-04-02T01:47:21.918Z,11.55
2023-04-02T01:49:51.828Z,11.32
2023-04-02T01:52:35.454Z,11.23
2023-04-02T01:55:04.561Z,11.13
2023-04-02T01:57:32.426Z,10.63
2023-04-02T02:00:01.898Z,10.82
2023-04-02T02:02:32.707Z,10.43
2023-04-02T02:05:04.054Z,10.30
2023-04-02T02:07:32.317Z,10.27
2023-04-02T02:10:03.149Z,10.55
2023-04-02T02:12:31.288Z,10.80
2023-04-02T02:14:59.483Z,10.07
2023-04-02T02:17:34.502Z,10.52
2023-04-02T02:20:12.463Z,10.38
2023-04-02T02:22:46.871Z,10.43
2023-04-02T02:25:28.950Z,10.30
2023-04-02T02:28:08.225Z,10.43
2023-04-02T02:30:59.199Z,9.88
2023-04-02T02:33:32.552Z,10.65
2023-04-02T02:36:10.204Z,10.35
2023-04-02T02:38:49.754Z,10.40
2023-04-02T02:41:31.191Z,10.37
2023-04-02T02:44:08.790Z,10.73
2023-04-02T02:46:43.233Z,9.52
2023-04-02T02:49:22.750Z,10.05
2023-04-02T02:52:01.728Z,10.10
2023-04-02T02:54:50.501Z,9.88
2023-04-02T02:57:26.261Z,10.05
2023-04-02T03:00:00.713Z,9.40
2023-04-02T03:02:37.524Z,9.43
2023-04-02T03:05:16.640Z,10.00
2023-04-02T03:07:45.475Z,9.65
2023-04-02T03:10:22.532Z,9.10
2023-04-02T03:13:33.187Z,9.95
2023-04-02T03:16:22.435Z,8.77
2023-04-02T03:19:31.618Z,9.60
2023-04-02T03:22:08.750Z,9.82
2023-04-02T03:25:18.363Z,9.05
2023-04-02T03:27:51.814Z,9.07
2023-04-02T03:30:57.104Z,8.43
2023-04-02T03:33:32.339Z,9.43
2023-04-02T03:36:10.738Z,8.95
2023-04-02T03:38:45.142Z,8.98
2023-04-02T03:41:38.842Z,8.32
2023-04-02T03:44:19.548Z,9.10
2023-04-02T03:46:57.389Z,8.73
2023-04-02T03:49:51.424Z,9.27
2023-04-02T03:52:29.820Z,8.38
2023-04-02T03:55:11.576Z,8.45
2023-04-02T03:57:47.701Z,8.73
2023-04-02T04:00:22.367Z,8.55
2023-04-02T04:03:03.565Z,8.50
2023-04-02T04:05:38.627Z,8.25
2023-04-02T04:08:20.230Z,8.57
2023-04-02T04:10:53.142Z,8.32
2023-04-02T04:13:32.168Z,8.10
2023-04-02T04:16:10.975Z,8.07
2023-04-02T04:18:52.757Z,8.02
2023-04-02T04:21:37.496Z,8.60
2023-04-02T04:27:09.734Z,7.28
2023-04-02T04:29:47.486Z,8.15
2023-04-02T04:32:38.958Z,7.47
2023-04-02T04:35:26.908Z,7.63
2023-04-02T04:38:14.793Z,7.75
2023-04-02T04:40:54.069Z,8.27
2023-04-02T04:43:41.036Z,7.28
2023-04-02T04:46:18.349Z,7.50
2023-04-02T04:49:28.442Z,7.90
2023-04-02T04:52:19.325Z,7.65
2023-04-02T04:54:49.441Z,7.45
2023-04-02T04:57:36.533Z,7.57
2023-04-02T05:00:44.617Z,7.18
2023-04-02T05:04:22.721Z,7.28
2023-04-02T05:06:51.080Z,7.30
2023-04-02T05:09:33.339Z,7.03
2023-04-02T05:12:22.501Z,7.38
2023-04-02T05:15:02.555Z,6.90
2023-04-02T05:17:54.322Z,7.28
2023-04-02T05:20:37.978Z,6.78
2023-04-02T05:23:37.515Z,7.05
2023-04-02T05:26:17.428Z,6.60
2023-04-02T05:29:11.660Z,6.97
2023-04-02T05:34:27.962Z,6.65
2023-04-02T05:36:56.287Z,6.88
2023-04-02T05:39:27.271Z,6.50
2023-04-02T05:42:05.711Z,7.20
2023-04-02T05:45:19.188Z,7.10
2023-04-02T05:47:54.553Z,6.22
2023-04-02T05:50:37.044Z,6.82
2023-04-02T05:53:22.843Z,6.20
2023-04-02T05:56:01.325Z,6.25
2023-04-02T05:59:04.715Z,6.15
2023-04-02T06:01:47.267Z,6.53
2023-04-02T06:04:34.147Z,6.53
2023-04-02T06:07:10.437Z,6.43
2023-04-02T06:10:09.529Z,6.15
2023-04-02T06:12:46.391Z,5.82
2023-04-02T06:15:17.329Z,6.00
2023-04-02T06:18:04.788Z,6.18
2023-04-02T06:20:34.597Z,6.05
2023-04-02T06:23:04.812Z,6.45
2023-04-02T06:25:45.836Z,5.97
2023-04-02T06:28:31.581Z,5.70
2023-04-02T06:31:07.934Z,5.90
2023-04-02T06:33:41.250Z,5.70
2023-04-02T06:36:12.669Z,5.93
2023-04-02T06:38:42.659Z,5.68
2023-04-02T06:41:17.974Z,5.85
2023-04-02T06:44:06.186Z,5.43
2023-04-02T06:46:59.092Z,5.63
2023-04-02T06:49:38.403Z,5.60
2023-04-02T06:52:19.605Z,5.57
2023-04-02T06:54:50.848Z,5.20
2023-04-02T06:57:27.626Z,5.70
2023-04-02T07:00:00.956Z,5.40
2023-04-02T07:02:38.226Z,5.32
2023-04-02T07:05:13.128Z,5.00
2023-04-02T07:07:47.168Z,5.43
2023-04-02T07:10:20.190Z,5.20
2023-04-02T07:15:24.055Z,5.38
2023-04-02T07:17:57.225Z,5.13
2023-04-02T07:20:37.627Z,4.85
2023-04-02T07:23:08.599Z,5.18
2023-04-02T07:25:38.451Z,4.93
2023-04-02T07:28:06.340Z,5.43
2023-04-02T07:30:38.569Z,4.70
2023-04-02T07:33:19.162Z,4.72
2023-04-02T07:35:49.755Z,5.00
2023-04-02T07:38:22.490Z,4.85
2023-04-02T07:43:23.205Z,4.90
2023-04-02T07:45:51.542Z,4.80
2023-04-02T07:48:24.420Z,4.68
2023-04-02T07:50:56.475Z,4.93
2023-04-02T07:53:38.173Z,4.80
2023-04-02T07:56:08.293Z,5.00
2023-04-02T07:58:43.311Z,5.00
2023-04-02T08:01:24.456Z,4.60
2023-04-02T08:03:57.128Z,4.88
2023-04-02T08:06:26.543Z,4.97
2023-04-02T08:09:04.813Z,4.82
2023-04-02T08:11:40.214Z,5.15
2023-04-02T08:14:11.483Z,4.55
2023-04-02T08:16:52.958Z,4.85
2023-04-02T08:19:23.773Z,4.57
2023-04-02T08:21:53.829Z,4.38
2023-04-02T08:24:21.712Z,4.82
2023-04-02T08:26:54.974Z,4.53
2023-04-02T08:29:32.251Z,4.65
2023-04-02T08:32:03.004Z,4.40
2023-04-02T08:34:33.607Z,4.63
2023-04-02T08:37:06.868Z,5.00
2023-04-02T08:39:41.337Z,4.72
2023-04-02T08:42:19.247Z,4.63
2023-04-02T08:45:24.269Z,4.95
2023-04-02T08:48:03.429Z,4.30
2023-04-02T08:50:37.686Z,4.47
2023-04-02T08:53:15.433Z,4.32
2023-04-02T08:56:04.091Z,4.38
2023-04-02T08:58:42.798Z,4.40
2023-04-02T09:01:49.525Z,4.50
2023-04-02T09:04:26.712Z,4.53
2023-04-02T09:06:59.456Z,4.53
2023-04-02T09:09:27.643Z,4.10
2023-04-02T09:12:04.617Z,4.22
2023-04-02T09:14:59.826Z,4.70
2023-04-02T09:17:42.622Z,4.20
2023-04-02T09:20:26.336Z,4.43
2023-04-02T09:23:00.160Z,4.20
2023-04-02T09:25:31.665Z,4.20
2023-04-02T09:28:08.162Z,4.53
2023-04-02T09:31:10.185Z,3.65
2023-04-02T09:33:54.709Z,4.60
2023-04-02T09:36:40.160Z,4.40
2023-04-02T09:39:25.800Z,3.80
2023-04-02T09:42:05.401Z,3.80
2023-04-02T09:44:38.761Z,4.30
2023-04-02T09:47:25.591Z,3.70
2023-04-02T09:50:36.094Z,4.20
2023-04-02T09:53:35.699Z,4.15
2023-04-02T09:56:14.528Z,4.28
2023-04-02T09:59:03.003Z,3.97
2023-04-02T10:01:55.133Z,3.97
2023-04-02T10:04:47.946Z,4.00
2023-04-02T10:07:39.815Z,3.55
2023-04-02T10:10:16.596Z,4.15
2023-04-02T10:12:54.013Z,4.00
2023-04-02T10:15:35.925Z,4.00
2023-04-02T10:18:45.024Z,3.78
2023-04-02T10:21:18.260Z,3.78
2023-04-02T10:23:47.753Z,4.18
2023-04-02T10:26:35.737Z,4.38
2023-04-02T10:29:06.958Z,4.03
2023-04-02T10:31:38.938Z,3.90
2023-04-02T10:34:17.267Z,3.47
2023-04-02T10:36:55.152Z,4.00
2023-04-02T10:39:26.066Z,3.78
2023-04-02T10:42:05.384Z,4.07
2023-04-02T10:44:54.565Z,4.03
2023-04-02T10:47:47.012Z,3.90
2023-04-02T10:50:32.376Z,4.07
2023-04-02T10:53:09.053Z,3.72
2023-04-02T10:55:43.197Z,3.63
2023-04-02T10:58:26.845Z,3.80
2023-04-02T11:01:01.034Z,3.50
2023-04-02T11:03:34.393Z,3.50
2023-04-02T11:06:12.139Z,3.65
2023-04-02T11:08:47.269Z,3.60
2023-04-02T11:11:22.590Z,3.53
2023-04-02T11:14:05.474Z,3.30
2023-04-02T11:16:33.611Z,3.53
2023-04-02T11:19:16.632Z,3.45
2023-04-02T11:22:03.730Z,3.72
2023-04-02T11:24:49.765Z,3.75
2023-04-02T11:30:16.022Z,3.60
2023-04-02T11:32:49.631Z,3.35
2023-04-02T11:35:31.352Z,3.53
2023-04-02T11:38:18.610Z,3.28
2023-04-02T11:41:02.565Z,3.15
2023-04-02T11:43:35.280Z,3.20
2023-04-02T11:46:16.555Z,3.40
2023-04-02T11:48:46.823Z,3.05
2023-04-02T11:51:22.879Z,2.88
2023-04-02T11:54:06.255Z,3.10
2023-04-02T11:56:45.414Z,3.00
2023-04-02T11:59:46.082Z,3.28
2023-04-02T12:02:26.191Z,2.83
2023-04-02T12:05:24.112Z,2.80
2023-04-02T12:08:16.889Z,2.80
2023-04-02T12:10:59.737Z,2.20
2023-04-02T12:13:43.070Z,2.80
2023-04-02T12:16:16.971Z,2.22
2023-04-02T12:18:54.141Z,2.47
2023-04-02T12:21:35.952Z,2.42
2023-04-02T12:24:03.880Z,2.55
2023-04-02T12:26:37.889Z,2.30
2023-04-02T12:29:27.077Z,2.40
2023-04-02T12:31:57.137Z,2.70
2023-04-02T12:34:31.245Z,2.67
2023-04-02T12:37:08.628Z,2.50
2023-04-02T12:39:38.991Z,2.53
2023-04-02T12:42:25.908Z,2.35
2023-04-02T12:44:55.116Z,2.30
2023-04-02T12:47:29.165Z,2.65
2023-04-02T12:49:59.165Z,2.35
2023-04-02T12:52:32.690Z,2.50
2023-04-02T12:55:10.085Z,2.40
2023-04-02T12:57:41.881Z,2.42
2023-04-02T13:00:30.983Z,2.72
2023-04-02T13:03:17.021Z,2.60
2023-04-02T13:05:49.850Z,2.65
2023-04-02T13:08:22.363Z,2.50
2023-04-02T13:11:16.591Z,2.40
2023-04-02T13:16:18.962Z,2.50
2023-04-02T13:18:50.683Z,2.25
2023-04-02T13:21:21.160Z,2.03
2023-04-02T13:23:51.379Z,2.28
2023-04-02T13:26:24.690Z,2.20
2023-04-02T13:28:58.953Z,2.53
2023-04-02T13:31:28.173Z,2.00
2023-04-02T13:33:59.266Z,2.30
2023-04-02T13:36:29.572Z,2.40
2023-04-02T13:39:01.869Z,2.17
2023-04-02T13:41:32.063Z,2.22
2023-04-02T13:44:02.430Z,2.25
2023-04-02T13:46:35.387Z,2.08
2023-04-02T13:49:03.199Z,2.33
2023-04-02T13:51:41.106Z,2.22
2023-04-02T13:54:37.771Z,2.08
2023-04-02T13:57:05.090Z,2.20
2023-04-02T13:59:32.372Z,2.42
2023-04-02T14:02:06.438Z,2.30
2023-04-02T14:04:38.878Z,1.90
2023-04-02T14:07:21.726Z,1.98
2023-04-02T14:10:01.080Z,2.42
2023-04-02T14:12:36.999Z,2.35
2023-04-02T14:15:27.622Z,1.98
2023-04-02T14:18:06.805Z,1.95
2023-04-02T14:21:06.502Z,2.25
2023-04-02T14:23:42.035Z,2.15
2023-04-02T14:26:22.402Z,2.40
2023-04-02T14:28:57.344Z,2.20
2023-04-02T14:31:35.583Z,2.00
2023-04-02T14:34:17.833Z,1.95
2023-04-02T14:36:51.928Z,2.20
2023-04-02T14:39:45.462Z,1.92
2023-04-02T14:42:26.155Z,2.20
2023-04-02T14:45:07.872Z,2.42
2023-04-02T14:48:02.169Z,1.98
2023-04-02T14:50:38.264Z,2.13
2023-04-02T14:53:15.886Z,2.00
2023-04-02T14:55:48.412Z,2.00
2023-04-02T14:58:25.956Z,2.08
2023-04-02T15:01:19.113Z,1.92
2023-04-02T15:03:59.103Z,2.00
2023-04-02T15:06:44.494Z,2.08
2023-04-02T15:09:22.593Z,1.90
2023-04-02T15:12:07.600Z,2.05
2023-04-02T15:14:53.822Z,2.13
2023-04-02T15:17:25.878Z,2.03
2023-04-02T15:20:13.721Z,1.73
2023-04-02T15:23:18.486Z,1.88
2023-04-02T15:26:20.329Z,1.85
2023-04-02T15:29:15.854Z,1.80
2023-04-02T15:32:03.988Z,1.90
2023-04-02T15:34:54.494Z,1.70
2023-04-02T15:37:31.172Z,2.00
2023-04-02T15:40:36.815Z,1.80
2023-04-02T15:43:33.901Z,1.88
2023-04-02T15:46:12.778Z,1.80
2023-04-02T15:49:01.329Z,1.95
2023-04-02T15:51:38.555Z,1.80
2023-04-02T15:54:37.033Z,1.70
2023-04-02T15:57:19.655Z,1.92
2023-04-02T16:00:24.241Z,1.90
2023-04-02T16:03:29.823Z,1.60
2023-04-02T16:06:39.370Z,1.90
2023-04-02T16:09:27.026Z,1.73
2023-04-02T16:12:13.892Z,1.63
2023-04-02T16:14:50.224Z,1.48
2023-04-02T16:17:36.136Z,1.83
2023-04-02T16:20:18.710Z,1.75
2023-04-02T16:23:00.535Z,1.90
2023-04-02T16:25:39.121Z,1.77
2023-04-02T16:28:49.677Z,1.50
2023-04-02T16:31:34.266Z,1.60
2023-04-02T16:34:09.883Z,1.77
2023-04-02T16:36:54.787Z,1.38
2023-04-02T16:39:53.217Z,1.75
2023-04-02T16:42:49.067Z,1.65
2023-04-02T16:45:19.570Z,1.63
2023-04-02T16:48:00.562Z,1.50
2023-04-02T16:50:39.585Z,1.60
2023-04-02T16:53:21.979Z,1.75
2023-04-02T16:56:21.739Z,1.75
2023-04-02T16:59:31.681Z,1.60
2023-04-02T17:02:13.425Z,1.67
2023-04-02T17:04:59.143Z,1.63
2023-04-02T17:07:40.666Z,1.50
2023-04-02T17:10:24.522Z,1.60
2023-04-02T17:15:39.154Z,1.52
2023-04-02T17:18:18.147Z,1.52
2023-04-02T17:20:51.417Z,1.50
2023-04-02T17:23:20.341Z,1.50
2023-04-02T17:25:57.908Z,1.52
2023-04-02T17:28:36.615Z,1.40
2023-04-02T17:31:16.229Z,1.58
2023-04-02T17:33:46.077Z,1.58
2023-04-02T17:36:22.252Z,1.50
2023-04-02T17:39:08.353Z,1.60
2023-04-02T17:41:47.745Z,1.48
2023-04-02T17:44:27.158Z,1.40
2023-04-02T17:47:03.474Z,1.40
2023-04-02T17:49:58.191Z,1.45
2023-04-02T17:52:33.466Z,1.45
2023-04-02T17:55:27.258Z,1.60
2023-04-02T17:58:01.644Z,1.33
2023-04-02T18:00:45.760Z,1.40
2023-04-02T18:03:30.957Z,1.60
2023-04-02T18:06:08.155Z,1.50
2023-04-02T18:08:52.476Z,1.40
2023-04-02T18:11:35.225Z,1.50
2023-04-02T18:14:56.149Z,1.20
2023-04-02T18:17:42.903Z,1.17
2023-04-02T18:20:33.020Z,1.40
2023-04-02T18:23:09.536Z,1.63
2023-04-02T18:26:14.608Z,1.30
2023-04-02T18:29:01.566Z,1.42
2023-04-02T18:31:40.348Z,1.40
2023-04-02T18:34:25.980Z,1.40
2023-04-02T18:37:15.329Z,1.52
2023-04-02T18:40:30.065Z,1.40
2023-04-02T18:43:12.748Z,1.25
2023-04-02T18:45:51.488Z,1.60
2023-04-02T18:48:53.574Z,1.58
2023-04-02T18:51:27.215Z,1.52
2023-04-02T18:56:33.139Z,1.48
2023-04-02T18:59:13.144Z,1.40
2023-04-02T19:01:44.412Z,1.45
2023-04-02T19:04:27.202Z,1.50
2023-04-02T19:07:12.169Z,1.33
2023-04-02T19:09:44.781Z,1.30
2023-04-02T19:12:20.658Z,1.13
2023-04-02T19:14:56.110Z,1.42
2023-04-02T19:17:29.483Z,1.13
2023-04-02T19:20:09.099Z,1.35
2023-04-02T19:22:54.886Z,1.25
2023-04-02T19:25:40.491Z,1.30
2023-04-02T19:28:21.105Z,1.10
2023-04-02T19:31:05.469Z,1.27
2023-04-02T19:33:38.496Z,1.45
2023-04-02T19:36:34.204Z,1.30
2023-04-02T19:39:22.473Z,1.17
2023-04-02T19:42:00.589Z,1.17
2023-04-02T19:44:30.954Z,1.48
2023-04-02T19:46:59.623Z,1.30
2023-04-02T19:49:31.104Z,1.42
2023-04-02T19:51:58.546Z,1.40
2023-04-02T19:54:26.160Z,1.10
2023-04-02T19:56:57.270Z,1.50
2023-04-02T19:59:27.599Z,1.33
2023-04-02T20:01:55.014Z,1.48
2023-04-02T20:04:25.095Z,1.50
2023-04-02T20:06:52.541Z,1.30
2023-04-02T20:09:24.398Z,1.25
2023-04-02T20:11:51.755Z,1.55
2023-04-02T20:14:21.831Z,1.40
2023-04-02T20:16:52.868Z,1.40
2023-04-02T20:19:23.782Z,1.48
2023-04-02T20:21:53.293Z,1.40
2023-04-02T20:24:26.669Z,1.60
2023-04-02T20:26:57.010Z,1.55
2023-04-02T20:29:31.840Z,1.55
2023-04-02T20:32:02.044Z,1.23
2023-04-02T20:34:30.777Z,1.40
2023-04-02T20:37:01.206Z,1.60
2023-04-02T20:39:30.891Z,1.42
2023-04-02T20:42:02.407Z,1.50
2023-04-02T20:44:32.873Z,1.65
2023-04-02T20:47:07.161Z,1.50
2023-04-02T20:49:35.328Z,1.45
2023-04-02T20:52:08.723Z,1.50
2023-04-02T20:54:40.785Z,1.60
2023-04-02T20:57:12.725Z,1.70
2023-04-02T20:59:42.597Z,1.73
2023-04-02T21:02:15.581Z,1.80
2023-04-02T21:04:44.081Z,1.70
2023-04-02T21:07:14.245Z,1.63
2023-04-02T21:09:46.710Z,1.63
2023-04-02T21:12:16.908Z,1.90
2023-04-02T21:14:46.463Z,1.60
2023-04-02T21:17:16.172Z,1.42
2023-04-02T21:19:45.949Z,1.42
2023-04-02T21:22:13.721Z,1.50
2023-04-02T21:24:47.383Z,1.40
2023-04-02T21:27:17.895Z,1.70
2023-04-02T21:29:45.653Z,1.60
2023-04-02T21:32:21.623Z,1.65
2023-04-02T21:34:57.859Z,1.70
2023-04-02T21:37:25.304Z,1.55
2023-04-02T21:39:53.678Z,1.55
2023-04-02T21:42:24.183Z,1.40
2023-04-02T21:44:54.290Z,1.73
2023-04-02T21:47:24.342Z,1.80
2023-04-02T21:49:54.592Z,1.67
2023-04-02T21:52:23.203Z,1.70
2023-04-02T21:54:53.769Z,1.58
2023-04-02T21:57:25.910Z,1.58
2023-04-02T21:59:56.980Z,1.65
2023-04-02T22:02:27.671Z,1.50
2023-04-02T22:04:59.191Z,1.60
2023-04-02T22:07:28.596Z,1.38
2023-04-02T22:10:00.868Z,1.60
2023-04-02T22:12:30.737Z,1.70
2023-04-02T22:15:02.636Z,1.65
2023-04-02T22:17:35.484Z,1.70
2023-04-02T22:20:09.213Z,1.70
2023-04-02T22:22:36.556Z,1.60
2023-04-02T22:25:04.077Z,1.63
2023-04-02T22:27:33.896Z,1.40
2023-04-02T22:30:03.575Z,1.67
2023-04-02T22:32:35.623Z,1.60
2023-04-02T22:35:02.929Z,1.60
2023-04-02T22:37:36.905Z,1.40
2023-04-02T22:40:04.934Z,1.70
2023-04-02T22:42:38.204Z,1.60
2023-04-02T22:45:08.146Z,1.45
2023-04-02T22:47:35.750Z,1.80
2023-04-02T22:50:09.131Z,1.90
2023-04-02T22:52:38.648Z,1.63
2023-04-02T22:55:08.741Z,1.67
2023-04-02T22:57:39.316Z,1.42
2023-04-02T23:00:19.147Z,1.63
2023-04-02T23:02:51.671Z,1.73
2023-04-02T23:05:21.821Z,1.50
2023-04-02T23:07:51.858Z,1.60
2023-04-02T23:10:24.095Z,1.70
2023-04-02T23:12:59.215Z,1.50
2023-04-02T23:15:31.427Z,1.90
2023-04-02T23:17:58.813Z,1.58
2023-04-02T23:20:29.297Z,1.48
2023-04-02T23:23:04.292Z,1.40
2023-04-02T23:25:31.595Z,1.50
2023-04-02T23:28:01.923Z,1.70
2023-04-02T23:30:31.110Z,1.75
2023-04-02T23:32:58.626Z,1.50
2023-04-02T23:35:28.292Z,1.80
2023-04-02T23:37:57.824Z,1.70
2023-04-02T23:40:27.876Z,1.65
2023-04-02T23:42:55.225Z,1.85
2023-04-02T23:45:22.546Z,1.75
2023-04-02T23:47:52.901Z,1.50
2023-04-02T23:50:24.935Z,1.40
2023-04-02T23:52:54.623Z,1.90
2023-04-02T23:55:21.925Z,1.60
2023-04-02T23:57:56.766Z,1.85
